Terminal Aerodrome Forecast
Issued by NWS

Home | Current Version | Previous Version | Text Only | Print | Product List | Glossary On
Versions: 1 2 3 4 5 6 7 8 9 10 11 12 13 14 15 16
000
FTUS42 TJSJ 201741
TAFISX
TAF
TISX 201741Z 2018/2118 18025G40KT 4SM SHRA SCT015 BKN030
     FM202200 16018G30KT 5SM -RA SCT020 BKN035
     FM210800 16012G20KT 5SM -RA SCT020 BKN035=

USA.gov is the U.S. government's official web portal to all federal, state and local government web resources and services.